createdAt,value
2022-11-01T00:01:32.138Z,54.78
2022-11-01T00:03:58.932Z,54.49
2022-11-01T00:06:25.812Z,54.93
2022-11-01T00:08:52.323Z,54.50
2022-11-01T00:11:19.261Z,54.80
2022-11-01T00:13:47.795Z,54.93
2022-11-01T00:16:15.325Z,54.69
2022-11-01T00:18:41.969Z,54.89
2022-11-01T00:21:09.299Z,55.25
2022-11-01T00:23:37.057Z,55.13
2022-11-01T00:26:04.150Z,55.32
2022-11-01T00:28:30.878Z,55.25
2022-11-01T00:30:58.200Z,55.69
2022-11-01T00:33:25.194Z,55.61
2022-11-01T00:36:00.580Z,55.71
2022-11-01T00:38:27.658Z,55.70
2022-11-01T00:40:54.561Z,55.72
2022-11-01T00:43:21.645Z,55.93
2022-11-01T00:45:48.316Z,55.92
2022-11-01T00:48:14.832Z,55.87
2022-11-01T00:50:41.669Z,55.96
2022-11-01T00:53:11.059Z,56.08
2022-11-01T00:55:37.636Z,56.09
2022-11-01T00:58:04.739Z,56.55
2022-11-01T01:00:31.456Z,56.61
2022-11-01T01:02:58.048Z,56.31
2022-11-01T01:05:24.676Z,56.54
2022-11-01T01:07:51.222Z,56.64
2022-11-01T01:10:17.800Z,56.42
2022-11-01T01:12:44.264Z,56.64
2022-11-01T01:15:14.359Z,56.63
2022-11-01T01:17:40.972Z,56.55
2022-11-01T01:20:08.178Z,56.62
2022-11-01T01:22:34.743Z,56.52
2022-11-01T01:25:05.956Z,56.85
2022-11-01T01:27:32.708Z,56.87
2022-11-01T01:29:59.197Z,56.64
2022-11-01T01:32:25.773Z,56.77
2022-11-01T01:34:52.262Z,57.23
2022-11-01T01:37:20.171Z,57.29
2022-11-01T01:39:47.040Z,56.99
2022-11-01T01:42:13.456Z,57.00
2022-11-01T01:44:55.244Z,57.15
2022-11-01T01:47:34.330Z,57.20
2022-11-01T01:50:12.645Z,57.56
2022-11-01T01:53:03.363Z,57.56
2022-11-01T01:55:37.337Z,57.31
2022-11-01T01:58:04.543Z,57.46
2022-11-01T02:00:30.999Z,57.50
2022-11-01T02:02:57.639Z,57.73
2022-11-01T02:05:52.063Z,57.79
2022-11-01T02:08:27.832Z,57.65
2022-11-01T02:11:00.845Z,57.61
2022-11-01T02:13:28.788Z,57.66
2022-11-01T02:16:22.504Z,57.59
2022-11-01T02:19:04.087Z,57.71
2022-11-01T02:21:46.354Z,57.62
2022-11-01T02:24:32.576Z,58.05
2022-11-01T02:27:08.823Z,57.84
2022-11-01T02:29:44.257Z,58.08
2022-11-01T02:32:21.212Z,58.13
2022-11-01T02:35:15.687Z,57.89
2022-11-01T02:37:48.828Z,58.29
2022-11-01T02:40:24.980Z,58.26
2022-11-01T02:42:57.148Z,57.92
2022-11-01T02:45:34.395Z,57.97
2022-11-01T02:48:02.543Z,58.06
2022-11-01T02:50:36.616Z,57.97
2022-11-01T02:53:04.360Z,57.95
2022-11-01T02:55:36.039Z,57.80
2022-11-01T02:58:13.152Z,57.95
2022-11-01T03:00:39.655Z,57.96
2022-11-01T03:03:30.673Z,57.96
2022-11-01T03:06:07.221Z,57.97
2022-11-01T03:08:40.628Z,57.73
2022-11-01T03:11:14.027Z,57.84
2022-11-01T03:13:56.421Z,57.79
2022-11-01T03:16:40.783Z,57.80
2022-11-01T03:19:07.218Z,57.94
2022-11-01T03:21:40.908Z,57.93
2022-11-01T03:24:27.310Z,58.01
2022-11-01T03:27:02.651Z,57.81
2022-11-01T03:29:31.429Z,57.75
2022-11-01T03:32:01.076Z,57.98
2022-11-01T03:34:31.589Z,57.89
2022-11-01T03:37:02.207Z,57.83
2022-11-01T03:39:34.926Z,57.69
2022-11-01T03:42:15.589Z,57.89
2022-11-01T03:44:47.549Z,57.43
2022-11-01T03:47:14.208Z,57.70
2022-11-01T03:49:40.720Z,57.81
2022-11-01T03:52:07.996Z,57.90
2022-11-01T03:54:36.143Z,57.65
2022-11-01T03:57:02.765Z,57.93
2022-11-01T03:59:29.274Z,57.54
2022-11-01T04:01:56.098Z,57.27
2022-11-01T04:04:24.034Z,57.27
2022-11-01T04:06:51.363Z,57.12
2022-11-01T04:09:17.849Z,56.46
2022-11-01T04:11:44.319Z,56.04
2022-11-01T04:14:30.800Z,55.60
2022-11-01T04:17:15.645Z,54.98
2022-11-01T04:20:00.583Z,54.76
2022-11-01T04:22:27.065Z,54.40
2022-11-01T04:24:57.119Z,53.90
2022-11-01T04:27:23.588Z,53.85
2022-11-01T04:29:50.066Z,53.28
2022-11-01T04:32:16.522Z,53.31
2022-11-01T04:34:46.171Z,52.77
2022-11-01T04:37:12.838Z,52.74
2022-11-01T04:39:39.416Z,52.54
2022-11-01T04:42:05.910Z,52.01
2022-11-01T04:44:36.509Z,51.80
2022-11-01T04:47:02.980Z,51.86
2022-11-01T04:49:29.491Z,51.97
2022-11-01T04:51:55.942Z,51.64
2022-11-01T04:54:23.791Z,51.31
2022-11-01T04:56:50.260Z,51.62
2022-11-01T04:59:16.763Z,51.42
2022-11-01T05:01:45.364Z,51.17
2022-11-01T05:04:15.218Z,50.92
2022-11-01T05:06:41.700Z,51.20
2022-11-01T05:09:08.188Z,50.55
2022-11-01T05:11:34.685Z,50.72
2022-11-01T05:14:01.244Z,50.40
2022-11-01T05:16:27.830Z,50.42
2022-11-01T05:18:54.330Z,50.46
2022-11-01T05:21:20.790Z,50.23
2022-11-01T05:23:48.780Z,50.30
2022-11-01T05:26:15.309Z,50.72
2022-11-01T05:28:41.785Z,50.65
2022-11-01T05:31:08.260Z,50.36
2022-11-01T05:33:34.730Z,50.61
2022-11-01T05:36:02.134Z,50.55
2022-11-01T05:38:28.803Z,50.36
2022-11-01T05:40:55.315Z,50.34
2022-11-01T05:43:21.752Z,50.70
2022-11-01T05:45:49.222Z,50.67
2022-11-01T05:48:15.691Z,50.68
2022-11-01T05:50:43.821Z,50.73
2022-11-01T05:53:10.640Z,50.82
2022-11-01T05:55:39.345Z,50.68
2022-11-01T05:58:06.129Z,50.90
2022-11-01T06:00:33.610Z,50.95
2022-11-01T06:03:01.018Z,50.62
2022-11-01T06:05:31.743Z,50.72
2022-11-01T06:08:01.481Z,50.80
2022-11-01T06:10:28.848Z,50.83
2022-11-01T06:12:55.573Z,51.01
2022-11-01T06:15:26.420Z,50.93
2022-11-01T06:17:57.466Z,50.87
2022-11-01T06:20:25.300Z,50.96
2022-11-01T06:22:51.887Z,50.52
2022-11-01T06:25:22.902Z,50.58
2022-11-01T06:27:49.400Z,50.56
2022-11-01T06:30:16.025Z,50.64
2022-11-01T06:32:42.604Z,50.69
2022-11-01T06:35:11.760Z,50.59
2022-11-01T06:37:41.392Z,50.80
2022-11-01T06:40:08.460Z,50.46
2022-11-01T06:42:34.980Z,50.60
2022-11-01T06:45:03.660Z,50.41
2022-11-01T06:47:30.178Z,50.41
2022-11-01T06:49:56.762Z,50.68
2022-11-01T06:52:23.256Z,50.73
2022-11-01T06:54:53.633Z,50.17
2022-11-01T06:57:20.189Z,50.79
2022-11-01T06:59:46.696Z,50.73
2022-11-01T07:02:14.652Z,50.63
2022-11-01T07:04:44.557Z,50.80
2022-11-01T07:07:11.031Z,50.72
2022-11-01T07:09:37.495Z,50.62
2022-11-01T07:12:04.174Z,50.79
2022-11-01T07:14:33.504Z,50.95
2022-11-01T07:16:59.944Z,51.12
2022-11-01T07:19:26.433Z,51.19
2022-11-01T07:21:52.881Z,50.82
2022-11-01T07:24:20.707Z,50.88
2022-11-01T07:26:48.286Z,51.11
2022-11-01T07:29:14.999Z,51.30
2022-11-01T07:31:41.731Z,51.34
2022-11-01T07:34:11.858Z,51.27
2022-11-01T07:36:38.403Z,51.16
2022-11-01T07:39:04.842Z,50.95
2022-11-01T07:41:31.440Z,51.43
2022-11-01T07:43:57.924Z,51.22
2022-11-01T07:46:24.503Z,51.17
2022-11-01T07:48:51.344Z,51.18
2022-11-01T07:51:18.282Z,51.25
2022-11-01T07:53:44.744Z,50.95
2022-11-01T07:56:11.269Z,51.18
2022-11-01T07:58:37.984Z,51.05
2022-11-01T08:01:04.571Z,51.05
2022-11-01T08:03:31.025Z,51.03
2022-11-01T08:05:58.001Z,51.16
2022-11-01T08:08:24.517Z,50.81
2022-11-01T08:10:51.013Z,50.63
2022-11-01T08:13:24.913Z,50.77
2022-11-01T08:15:54.795Z,50.95
2022-11-01T08:18:24.220Z,50.68
2022-11-01T08:20:51.373Z,51.01
2022-11-01T08:23:18.084Z,50.89
2022-11-01T08:25:46.138Z,50.48
2022-11-01T08:28:15.478Z,50.56
2022-11-01T08:30:43.520Z,50.46
2022-11-01T08:33:10.936Z,50.71
2022-11-01T08:35:38.427Z,50.74
2022-11-01T08:38:05.384Z,50.34
2022-11-01T08:40:33.404Z,50.26
2022-11-01T08:43:00.677Z,50.15
2022-11-01T08:45:29.060Z,50.27
2022-11-01T08:48:03.559Z,50.26
2022-11-01T08:50:30.126Z,50.22
2022-11-01T08:52:56.689Z,50.02
2022-11-01T08:55:25.246Z,49.68
2022-11-01T08:57:51.892Z,49.21
2022-11-01T09:00:18.781Z,49.04
2022-11-01T09:02:45.578Z,49.02
2022-11-01T09:05:13.435Z,48.88
2022-11-01T09:07:40.008Z,48.81
2022-11-01T09:10:07.411Z,48.71
2022-11-01T09:12:34.727Z,48.08
2022-11-01T09:15:01.291Z,48.46
2022-11-01T09:17:28.280Z,48.40
2022-11-01T09:19:55.271Z,48.14
2022-11-01T09:22:22.920Z,47.91
2022-11-01T09:24:55.466Z,47.73
2022-11-01T09:27:21.974Z,47.72
2022-11-01T09:29:51.066Z,47.64
2022-11-01T09:32:21.172Z,47.31
2022-11-01T09:34:51.805Z,47.01
2022-11-01T09:37:18.294Z,47.15
2022-11-01T09:39:44.862Z,47.33
2022-11-01T09:42:26.230Z,47.19
2022-11-01T09:44:57.039Z,46.82
2022-11-01T09:47:28.249Z,46.69
2022-11-01T09:50:02.805Z,46.37
2022-11-01T09:52:29.374Z,46.26
2022-11-01T09:54:55.921Z,46.24
2022-11-01T09:57:35.515Z,46.17
2022-11-01T10:00:04.910Z,46.23
2022-11-01T10:02:46.136Z,46.17
2022-11-01T10:05:21.723Z,46.25
2022-11-01T10:08:10.706Z,45.74
2022-11-01T10:10:38.959Z,46.09
2022-11-01T10:13:18.965Z,45.52
2022-11-01T10:16:14.166Z,45.91
2022-11-01T10:18:56.441Z,45.92
2022-11-01T10:21:27.345Z,45.69
2022-11-01T10:23:59.919Z,45.67
2022-11-01T10:26:29.331Z,45.60
2022-11-01T10:29:18.075Z,45.30
2022-11-01T10:31:48.295Z,45.19
2022-11-01T10:34:25.110Z,45.05
2022-11-01T10:36:58.716Z,45.26
2022-11-01T10:39:54.990Z,45.01
2022-11-01T10:42:23.547Z,44.95
2022-11-01T10:44:55.372Z,45.19
2022-11-01T10:47:24.286Z,45.03
2022-11-01T10:50:14.866Z,45.00
2022-11-01T10:52:50.831Z,44.71
2022-11-01T10:55:49.989Z,44.49
2022-11-01T10:58:29.136Z,44.62
2022-11-01T11:00:55.917Z,44.50
2022-11-01T11:03:30.889Z,44.40
2022-11-01T11:06:01.671Z,44.42
2022-11-01T11:08:28.361Z,44.46
2022-11-01T11:11:02.323Z,44.09
2022-11-01T11:13:29.922Z,43.93
2022-11-01T11:16:04.262Z,43.81
2022-11-01T11:18:30.677Z,43.72
2022-11-01T11:21:02.809Z,43.35
2022-11-01T11:23:33.061Z,43.67
2022-11-01T11:26:04.984Z,43.62
2022-11-01T11:28:34.263Z,43.42
2022-11-01T11:31:34.990Z,43.37
2022-11-01T11:34:32.629Z,43.36
2022-11-01T11:37:03.579Z,43.46
2022-11-01T11:39:36.356Z,43.14
2022-11-01T11:42:18.874Z,42.94
2022-11-01T11:44:53.851Z,42.99
2022-11-01T11:47:24.630Z,42.86
2022-11-01T11:49:54.102Z,42.64
2022-11-01T11:52:28.378Z,42.74
2022-11-01T11:54:56.968Z,42.61
2022-11-01T11:57:25.795Z,42.29
2022-11-01T11:59:55.321Z,42.38
2022-11-01T12:02:29.629Z,42.42
2022-11-01T12:05:06.678Z,42.24
2022-11-01T12:07:45.630Z,42.20
2022-11-01T12:10:34.502Z,42.12
2022-11-01T12:13:02.595Z,42.19
2022-11-01T12:15:38.434Z,42.16
2022-11-01T12:18:16.015Z,42.17
2022-11-01T12:20:48.328Z,41.77
2022-11-01T12:23:22.517Z,41.75
2022-11-01T12:25:51.097Z,41.83
2022-11-01T12:28:25.885Z,41.84
2022-11-01T12:30:58.318Z,41.91
2022-11-01T12:33:50.772Z,42.04
2022-11-01T12:36:32.223Z,41.71
2022-11-01T12:39:02.057Z,42.01
2022-11-01T12:41:52.370Z,42.02
2022-11-01T12:44:39.120Z,42.42
2022-11-01T12:47:40.635Z,42.60
2022-11-01T12:50:22.357Z,42.32
2022-11-01T12:52:56.924Z,42.62
2022-11-01T12:55:29.892Z,42.48
2022-11-01T12:57:56.857Z,42.48
2022-11-01T13:00:25.996Z,42.66
2022-11-01T13:03:14.473Z,42.62
2022-11-01T13:06:06.299Z,42.56
2022-11-01T13:09:04.716Z,42.13
2022-11-01T13:11:49.764Z,42.42
2022-11-01T13:14:41.266Z,42.49
2022-11-01T13:17:10.740Z,42.47
2022-11-01T13:19:46.476Z,42.35
2022-11-01T13:22:48.316Z,42.48
2022-11-01T13:25:40.847Z,42.31
2022-11-01T13:28:22.130Z,42.17
2022-11-01T13:31:33.370Z,42.41
2022-11-01T13:34:02.850Z,41.92
2022-11-01T13:36:32.144Z,42.01
2022-11-01T13:39:10.103Z,41.90
2022-11-01T13:42:00.955Z,41.98
2022-11-01T13:44:32.727Z,41.65
2022-11-01T13:47:27.847Z,41.74
2022-11-01T13:50:32.561Z,41.99
2022-11-01T13:53:10.330Z,42.21
2022-11-01T13:55:48.093Z,41.94
2022-11-01T13:58:19.451Z,42.12
2022-11-01T14:00:49.991Z,41.97
2022-11-01T14:03:24.093Z,41.79
2022-11-01T14:06:09.404Z,41.88
2022-11-01T14:08:41.092Z,41.95
2022-11-01T14:11:11.530Z,41.43
2022-11-01T14:13:41.145Z,41.87
2022-11-01T14:16:22.733Z,41.96
2022-11-01T14:19:02.702Z,41.84
2022-11-01T14:21:49.696Z,41.64
2022-11-01T14:24:22.249Z,41.67
2022-11-01T14:26:50.184Z,41.84
2022-11-01T14:29:17.058Z,42.00
2022-11-01T14:31:46.071Z,41.88
2022-11-01T14:34:24.455Z,41.99
2022-11-01T14:36:53.951Z,42.13
2022-11-01T14:39:46.727Z,42.05
2022-11-01T14:42:22.954Z,42.21
2022-11-01T14:44:56.287Z,42.17
2022-11-01T14:47:37.703Z,42.17
2022-11-01T14:50:18.588Z,42.26
2022-11-01T14:52:56.602Z,42.28
2022-11-01T14:55:36.238Z,42.20
2022-11-01T14:58:22.317Z,42.15
2022-11-01T15:00:54.939Z,42.34
2022-11-01T15:03:22.322Z,42.40
2022-11-01T15:05:52.364Z,42.45
2022-11-01T15:08:30.152Z,42.79
2022-11-01T15:11:00.135Z,42.49
2022-11-01T15:13:27.929Z,42.79
2022-11-01T15:16:21.698Z,42.94
2022-11-01T15:18:54.867Z,42.63
2022-11-01T15:21:27.267Z,42.97
2022-11-01T15:23:57.631Z,42.88
2022-11-01T15:26:27.033Z,42.72
2022-11-01T15:28:58.101Z,42.90
2022-11-01T15:31:25.486Z,43.19
2022-11-01T15:34:00.660Z,43.33
2022-11-01T15:36:29.411Z,43.30
2022-11-01T15:39:01.856Z,43.14
2022-11-01T15:41:28.348Z,43.30
2022-11-01T15:43:56.997Z,43.38
2022-11-01T15:46:29.982Z,43.35
2022-11-01T15:49:00.518Z,43.51
2022-11-01T15:51:29.814Z,43.61
2022-11-01T15:54:34.188Z,43.76
2022-11-01T15:57:08.044Z,43.83
2022-11-01T15:59:48.738Z,43.81
2022-11-01T16:02:23.481Z,43.57
2022-11-01T16:04:52.096Z,43.85
2022-11-01T16:07:21.393Z,43.71
2022-11-01T16:09:51.807Z,43.90
2022-11-01T16:12:22.332Z,43.82
2022-11-01T16:15:00.345Z,43.81
2022-11-01T16:17:35.833Z,43.83
2022-11-01T16:20:07.778Z,44.15
2022-11-01T16:22:36.620Z,44.14
2022-11-01T16:25:16.404Z,43.93
2022-11-01T16:28:10.300Z,44.44
2022-11-01T16:30:42.808Z,44.07
2022-11-01T16:33:18.242Z,44.56
2022-11-01T16:35:47.477Z,44.59
2022-11-01T16:38:34.167Z,44.25
2022-11-01T16:41:06.353Z,44.71
2022-11-01T16:43:34.740Z,44.84
2022-11-01T16:46:03.239Z,44.61
2022-11-01T16:48:35.990Z,44.75
2022-11-01T16:51:03.550Z,44.95
2022-11-01T16:53:30.501Z,44.97
2022-11-01T16:56:34.507Z,45.00
2022-11-01T16:58:59.433Z,44.71
2022-11-01T17:01:35.274Z,45.05
2022-11-01T17:04:02.671Z,44.87
2022-11-01T17:06:32.280Z,44.80
2022-11-01T17:09:01.152Z,45.08
2022-11-01T17:11:27.717Z,45.35
2022-11-01T17:13:54.235Z,45.15
2022-11-01T17:16:25.855Z,45.14
2022-11-01T17:18:56.304Z,44.96
2022-11-01T17:21:23.800Z,45.49
2022-11-01T17:23:51.229Z,45.52
2022-11-01T17:26:19.395Z,45.49
2022-11-01T17:28:51.233Z,45.16
2022-11-01T17:31:18.932Z,45.36
2022-11-01T17:33:45.830Z,45.50
2022-11-01T17:36:17.017Z,45.41
2022-11-01T17:38:44.910Z,45.54
2022-11-01T17:41:17.315Z,45.47
2022-11-01T17:43:44.127Z,45.56
2022-11-01T17:46:15.032Z,45.48
2022-11-01T17:48:41.836Z,45.70
2022-11-01T17:51:08.529Z,45.66
2022-11-01T17:53:38.068Z,45.71
2022-11-01T17:56:04.915Z,45.80
2022-11-01T17:58:31.431Z,45.91
2022-11-01T18:00:57.986Z,46.22
2022-11-01T18:03:25.505Z,46.00
2022-11-01T18:06:02.164Z,45.88
2022-11-01T18:08:33.316Z,46.04
2022-11-01T18:11:15.475Z,46.16
2022-11-01T18:13:44.616Z,46.33
2022-11-01T18:16:26.630Z,45.99
2022-11-01T18:19:01.648Z,45.96
2022-11-01T18:21:40.245Z,46.25
2022-11-01T18:24:18.365Z,46.20
2022-11-01T18:26:48.276Z,46.37
2022-11-01T18:29:24.553Z,46.08
2022-11-01T18:32:07.926Z,46.40
2022-11-01T18:34:42.970Z,46.36
2022-11-01T18:37:26.023Z,46.57
2022-11-01T18:40:01.392Z,46.58
2022-11-01T18:42:28.137Z,46.25
2022-11-01T18:44:58.098Z,46.49
2022-11-01T18:47:32.676Z,46.28
2022-11-01T18:50:03.807Z,46.61
2022-11-01T18:52:30.270Z,46.37
2022-11-01T18:54:58.768Z,46.61
2022-11-01T18:57:27.847Z,46.65
2022-11-01T18:59:54.548Z,46.29
2022-11-01T19:02:24.545Z,46.47
2022-11-01T19:04:52.607Z,46.45
2022-11-01T19:07:22.894Z,46.82
2022-11-01T19:09:57.139Z,46.67
2022-11-01T19:12:31.266Z,46.83
2022-11-01T19:15:21.419Z,46.87
2022-11-01T19:18:02.696Z,46.85
2022-11-01T19:20:39.661Z,46.77
2022-11-01T19:23:37.508Z,46.86
2022-11-01T19:26:27.287Z,46.41
2022-11-01T19:28:54.013Z,46.85
2022-11-01T19:31:23.317Z,46.83
2022-11-01T19:33:55.342Z,46.85
2022-11-01T19:36:25.282Z,46.89
2022-11-01T19:38:53.372Z,46.75
2022-11-01T19:41:30.413Z,46.94
2022-11-01T19:44:01.959Z,47.06
2022-11-01T19:46:30.033Z,46.90
2022-11-01T19:48:56.505Z,47.07
2022-11-01T19:51:23.823Z,46.99
2022-11-01T19:53:52.062Z,47.38
2022-11-01T19:56:21.940Z,47.22
2022-11-01T19:58:55.082Z,47.17
2022-11-01T20:01:45.303Z,46.97
2022-11-01T20:04:29.018Z,47.38
2022-11-01T20:07:08.682Z,47.39
2022-11-01T20:09:36.522Z,47.16
2022-11-01T20:12:03.325Z,47.45
2022-11-01T20:14:36.342Z,47.20
2022-11-01T20:17:03.380Z,47.25
2022-11-01T20:19:31.329Z,47.66
2022-11-01T20:21:59.005Z,47.36
2022-11-01T20:24:28.457Z,47.72
2022-11-01T20:26:55.442Z,47.32
2022-11-01T20:29:22.536Z,47.79
2022-11-01T20:31:49.835Z,47.89
2022-11-01T20:34:17.521Z,47.89
2022-11-01T20:36:46.805Z,47.68
2022-11-01T20:39:22.712Z,47.71
2022-11-01T20:41:51.534Z,48.09
2022-11-01T20:44:18.666Z,47.76
2022-11-01T20:46:45.447Z,47.66
2022-11-01T20:49:12.030Z,47.73
2022-11-01T20:51:40.593Z,47.98
2022-11-01T20:54:17.495Z,47.79
2022-11-01T20:56:44.666Z,47.82
2022-11-01T20:59:12.250Z,47.94
2022-11-01T21:01:40.410Z,47.93
2022-11-01T21:04:17.056Z,47.71
2022-11-01T21:06:43.644Z,47.80
2022-11-01T21:09:33.551Z,47.91
2022-11-01T21:12:00.323Z,47.64
2022-11-01T21:14:37.167Z,48.01
2022-11-01T21:17:16.926Z,48.09
2022-11-01T21:19:49.075Z,47.89
2022-11-01T21:22:19.659Z,47.76
2022-11-01T21:24:51.298Z,48.06
2022-11-01T21:30:15.010Z,48.03
2022-11-01T21:32:45.003Z,47.67
2022-11-01T21:35:38.030Z,48.04
2022-11-01T21:38:32.143Z,48.10
2022-11-01T21:40:59.220Z,47.66
2022-11-01T21:43:32.635Z,47.57
2022-11-01T21:45:59.690Z,47.85
2022-11-01T21:48:29.846Z,47.60
2022-11-01T21:50:56.902Z,47.65
2022-11-01T21:53:23.452Z,48.03
2022-11-01T21:55:50.181Z,47.77
2022-11-01T21:58:16.715Z,47.66
2022-11-01T22:00:43.247Z,47.48
2022-11-01T22:03:09.810Z,47.84
2022-11-01T22:05:36.508Z,47.90
2022-11-01T22:08:03.076Z,47.62
2022-11-01T22:10:29.616Z,47.56
2022-11-01T22:12:56.261Z,47.73
2022-11-01T22:15:24.501Z,47.54
2022-11-01T22:17:51.034Z,47.46
2022-11-01T22:20:17.603Z,47.40
2022-11-01T22:22:44.055Z,47.40
2022-11-01T22:25:11.140Z,47.30
2022-11-01T22:27:37.610Z,47.74
2022-11-01T22:30:05.436Z,47.54
2022-11-01T22:32:31.912Z,47.79
2022-11-01T22:34:59.663Z,47.50
2022-11-01T22:37:26.970Z,47.67
2022-11-01T22:39:53.913Z,47.71
2022-11-01T22:42:20.505Z,47.33
2022-11-01T22:44:50.436Z,47.60
2022-11-01T22:47:28.312Z,47.53
2022-11-01T22:49:57.105Z,47.56
2022-11-01T22:52:50.413Z,47.49
2022-11-01T22:55:24.804Z,47.54
2022-11-01T22:58:13.720Z,47.48
2022-11-01T23:00:40.282Z,47.66
2022-11-01T23:03:23.412Z,47.42
2022-11-01T23:05:52.740Z,47.75
2022-11-01T23:08:37.083Z,47.58
2022-11-01T23:11:04.551Z,47.47
2022-11-01T23:13:55.871Z,47.75
2022-11-01T23:16:39.917Z,47.37
2022-11-01T23:19:11.318Z,47.55
2022-11-01T23:21:37.943Z,47.37
2022-11-01T23:24:25.539Z,47.62
2022-11-01T23:26:53.204Z,47.43
2022-11-01T23:29:19.781Z,47.55
2022-11-01T23:31:46.354Z,47.59
2022-11-01T23:34:15.701Z,47.71
2022-11-01T23:36:42.754Z,47.80
2022-11-01T23:39:14.551Z,47.84
2022-11-01T23:41:46.249Z,47.77
2022-11-01T23:44:39.588Z,48.12
2022-11-01T23:47:19.724Z,48.12
2022-11-01T23:49:48.976Z,47.90
2022-11-01T23:52:41.936Z,48.03
2022-11-01T23:55:26.492Z,48.33
2022-11-01T23:57:58.562Z,48.24
